createdAt,value
2022-08-08T00:00:56.090Z,100437.28
2022-08-08T00:03:37.099Z,100439.63
2022-08-08T00:07:25.901Z,100446.22
2022-08-08T00:10:28.508Z,100439.00
2022-08-08T00:14:15.463Z,100438.41
2022-08-08T00:17:47.910Z,100441.84
2022-08-08T00:20:49.465Z,100448.91
2022-08-08T00:23:58.255Z,100446.56
2022-08-08T00:26:57.419Z,100437.69
2022-08-08T00:29:50.183Z,100445.22
2022-08-08T00:32:48.238Z,100448.09
2022-08-08T00:35:59.368Z,100437.31
2022-08-08T00:41:07.456Z,100447.25
2022-08-08T00:42:50.627Z,100447.53
2022-08-08T00:46:16.081Z,100444.72
2022-08-08T00:49:50.632Z,100447.25
2022-08-08T00:53:15.624Z,100450.03
2022-08-08T00:56:48.655Z,100447.16
2022-08-08T01:00:12.053Z,100441.16
2022-08-08T01:03:57.376Z,100445.91
2022-08-08T01:07:01.416Z,100440.66
2022-08-08T01:10:38.721Z,100439.91
2022-08-08T01:13:58.058Z,100428.53
2022-08-08T01:17:20.115Z,100434.97
2022-08-08T01:20:35.802Z,100426.38
2022-08-08T01:24:03.084Z,100429.47
2022-08-08T01:27:32.652Z,100429.38
2022-08-08T01:31:25.799Z,100426.47
2022-08-08T01:34:41.399Z,100435.16
2022-08-08T01:38:01.042Z,100439.81
2022-08-08T01:41:26.890Z,100435.94
2022-08-08T01:45:02.948Z,100440.47
2022-08-08T01:48:16.104Z,100443.56
2022-08-08T01:52:51.329Z,100444.63
2022-08-08T01:56:29.381Z,100450.50
2022-08-08T01:59:49.280Z,100440.97
2022-08-08T02:03:07.271Z,100438.16
2022-08-08T02:06:05.485Z,100445.97
2022-08-08T02:09:17.927Z,100440.19
2022-08-08T02:12:28.603Z,100445.22
2022-08-08T02:15:22.403Z,100453.91
2022-08-08T02:18:34.629Z,100446.38
2022-08-08T02:22:00.101Z,100449.94
2022-08-08T02:25:16.539Z,100456.97
2022-08-08T02:28:19.981Z,100449.63
2022-08-08T02:31:57.916Z,100447.47
2022-08-08T02:35:11.257Z,100454.50
2022-08-08T02:38:50.610Z,100445.91
2022-08-08T02:42:03.806Z,100455.25
2022-08-08T02:45:32.020Z,100449.50
2022-08-08T02:49:48.185Z,100422.19
2022-08-08T02:52:40.227Z,100449.78
2022-08-08T02:55:57.843Z,100453.50
2022-08-08T02:59:26.106Z,100445.75
2022-08-08T03:02:50.839Z,100451.44
2022-08-08T03:06:39.167Z,100443.88
2022-08-08T03:10:08.946Z,100450.72
2022-08-08T03:16:00.167Z,100450.72
2022-08-08T03:16:50.547Z,100445.91
2022-08-08T03:20:08.213Z,100446.66
2022-08-08T03:23:00.604Z,100433.50
2022-08-08T03:25:52.587Z,100438.22
2022-08-08T03:28:56.553Z,100421.63
2022-08-08T03:32:06.563Z,100433.09
2022-08-08T03:34:57.009Z,100447.53
2022-08-08T03:38:53.177Z,100441.47
2022-08-08T03:40:55.824Z,100446.31
2022-08-08T03:43:59.652Z,100423.53
2022-08-08T03:46:50.046Z,100457.16
2022-08-08T03:49:59.940Z,100453.28
2022-08-08T03:52:47.527Z,100450.06
2022-08-08T03:55:56.082Z,100461.06
2022-08-08T03:58:50.770Z,100468.53
2022-08-08T04:02:15.728Z,100470.53
2022-08-08T04:04:48.375Z,100461.09
2022-08-08T04:07:39.900Z,100462.31
2022-08-08T04:10:31.945Z,100484.22
2022-08-08T04:13:20.883Z,100475.84
2022-08-08T04:16:08.808Z,100441.31
2022-08-08T04:18:56.638Z,100474.47
2022-08-08T04:21:46.042Z,100487.00
2022-08-08T04:24:33.824Z,100482.38
2022-08-08T04:28:03.382Z,100480.06
2022-08-08T04:30:36.594Z,100484.56
2022-08-08T04:33:38.560Z,100491.69
2022-08-08T04:36:29.869Z,100492.31
2022-08-08T04:40:03.881Z,100492.59
2022-08-08T04:42:27.273Z,100485.34
2022-08-08T04:45:15.873Z,100486.06
2022-08-08T04:48:04.119Z,100458.66
2022-08-08T04:50:52.053Z,100489.16
2022-08-08T04:54:27.391Z,100484.63
2022-08-08T04:56:47.861Z,100512.25
2022-08-08T04:59:41.714Z,100503.09
2022-08-08T05:02:31.337Z,100524.16
2022-08-08T05:05:20.342Z,100512.34
2022-08-08T05:08:27.278Z,100501.41
2022-08-08T05:11:23.202Z,100500.56
2022-08-08T05:14:14.111Z,100516.94
2022-08-08T05:17:08.617Z,100505.28
2022-08-08T05:20:10.148Z,100515.13
2022-08-08T05:23:02.341Z,100510.91
2022-08-08T05:25:51.877Z,100521.00
2022-08-08T05:28:56.639Z,100524.78
2022-08-08T05:32:03.022Z,100524.91
2022-08-08T05:34:54.100Z,100521.41
2022-08-08T05:37:53.970Z,100530.75
2022-08-08T05:40:57.209Z,100522.31
2022-08-08T05:44:03.925Z,100540.69
2022-08-08T05:46:54.035Z,100531.88
2022-08-08T05:49:53.986Z,100531.47
2022-08-08T05:52:44.023Z,100536.25
2022-08-08T05:56:08.319Z,100532.44
2022-08-08T05:58:54.034Z,100538.53
2022-08-08T06:01:57.193Z,100540.81
2022-08-08T06:04:54.340Z,100542.53
2022-08-08T06:07:43.796Z,100539.22
2022-08-08T06:10:35.087Z,100534.41
2022-08-08T06:13:35.850Z,100551.63
2022-08-08T06:16:36.687Z,100544.75
2022-08-08T06:19:27.494Z,100554.59
2022-08-08T06:26:36.092Z,100554.66
2022-08-08T06:28:39.875Z,100536.50
2022-08-08T06:32:08.991Z,100562.41
2022-08-08T06:34:56.524Z,100570.59
2022-08-08T06:38:14.028Z,100563.16
2022-08-08T06:41:15.553Z,100524.38
2022-08-08T06:44:04.665Z,100560.81
2022-08-08T06:47:01.652Z,100560.81
2022-08-08T06:49:56.745Z,100572.88
2022-08-08T06:52:50.398Z,100559.56
2022-08-08T06:55:41.731Z,100567.16
2022-08-08T06:58:33.330Z,100573.69
2022-08-08T07:02:17.928Z,100565.75
2022-08-08T07:05:05.370Z,100570.28
2022-08-08T07:07:53.082Z,100577.59
2022-08-08T07:10:51.249Z,100579.41
2022-08-08T07:14:01.066Z,100580.06
2022-08-08T07:17:19.818Z,100573.63
2022-08-08T07:20:11.171Z,100581.44
2022-08-08T07:23:23.506Z,100586.72
2022-08-08T07:26:13.217Z,100583.97
2022-08-08T07:29:08.347Z,100586.34
2022-08-08T07:31:59.423Z,100585.75
2022-08-08T07:35:00.170Z,100599.22
2022-08-08T07:38:04.274Z,100592.19
2022-08-08T07:41:04.161Z,100585.63
2022-08-08T07:43:56.143Z,100586.06
2022-08-08T07:46:48.276Z,100599.19
2022-08-08T07:49:42.463Z,100594.72
2022-08-08T07:52:34.094Z,100599.59
2022-08-08T07:55:30.346Z,100609.53
2022-08-08T07:58:33.992Z,100596.06
2022-08-08T08:01:27.126Z,100611.94
2022-08-08T08:04:16.635Z,100591.81
2022-08-08T08:07:05.028Z,100604.97
2022-08-08T08:09:54.471Z,100607.50
2022-08-08T08:12:56.288Z,100608.13
2022-08-08T08:15:44.162Z,100609.88
2022-08-08T08:19:01.663Z,100604.13
2022-08-08T08:21:57.395Z,100617.97
2022-08-08T08:24:52.134Z,100619.28
2022-08-08T08:27:47.039Z,100613.91
2022-08-08T08:30:35.437Z,100609.53
2022-08-08T08:33:23.224Z,100613.03
2022-08-08T08:36:19.797Z,100613.81
2022-08-08T08:39:17.423Z,100613.66
2022-08-08T08:42:12.202Z,100620.84
2022-08-08T08:45:10.275Z,100617.47
2022-08-08T08:48:10.466Z,100620.44
2022-08-08T08:51:14.383Z,100613.53
2022-08-08T08:54:03.483Z,100611.41
2022-08-08T08:56:52.138Z,100622.06
2022-08-08T09:00:01.729Z,100621.72
2022-08-08T09:02:52.516Z,100602.88
2022-08-08T09:05:53.835Z,100598.63
2022-08-08T09:08:49.803Z,100628.41
2022-08-08T09:11:47.383Z,100610.41
2022-08-08T09:14:54.859Z,100622.88
2022-08-08T09:17:55.284Z,100613.88
2022-08-08T09:21:56.001Z,100611.47
2022-08-08T09:23:55.505Z,100619.25
2022-08-08T09:26:55.434Z,100614.88
2022-08-08T09:29:55.594Z,100616.97
2022-08-08T09:33:12.614Z,100609.13
2022-08-08T09:36:04.475Z,100621.16
2022-08-08T09:39:10.310Z,100597.03
2022-08-08T09:42:21.138Z,100600.03
2022-08-08T09:45:55.012Z,100605.31
2022-08-08T09:48:53.233Z,100587.59
2022-08-08T09:52:07.580Z,100592.00
2022-08-08T09:54:57.064Z,100614.09
2022-08-08T09:58:00.783Z,100586.59
2022-08-08T10:00:57.249Z,100610.47
2022-08-08T10:03:55.981Z,100602.34
2022-08-08T10:06:52.851Z,100582.94
2022-08-08T10:10:00.347Z,100592.50
2022-08-08T10:12:54.147Z,100586.81
2022-08-08T10:16:00.437Z,100594.47
2022-08-08T10:18:55.398Z,100582.25
2022-08-08T10:21:53.274Z,100574.72
2022-08-08T10:24:47.351Z,100574.78
2022-08-08T10:27:49.788Z,100590.88
2022-08-08T10:31:00.867Z,100559.00
2022-08-08T10:34:18.049Z,100577.88
2022-08-08T10:37:05.586Z,100578.19
2022-08-08T10:39:56.127Z,100566.38
2022-08-08T10:42:48.128Z,100564.16
2022-08-08T10:45:55.719Z,100575.84
2022-08-08T10:48:56.038Z,100565.66
2022-08-08T10:51:51.090Z,100541.84
2022-08-08T10:54:41.401Z,100542.19
2022-08-08T10:57:49.939Z,100550.81
2022-08-08T11:00:53.619Z,100536.44
2022-08-08T11:04:00.868Z,100537.72
2022-08-08T11:07:00.551Z,100554.16
2022-08-08T11:09:48.368Z,100556.38
2022-08-08T11:13:18.659Z,100559.69
2022-08-08T11:16:11.446Z,100554.31
2022-08-08T11:19:12.170Z,100560.09
2022-08-08T11:22:04.432Z,100560.13
2022-08-08T11:25:14.168Z,100558.41
2022-08-08T11:28:05.616Z,100525.72
2022-08-08T11:31:00.167Z,100538.41
2022-08-08T11:34:01.950Z,100522.78
2022-08-08T11:36:51.596Z,100534.06
2022-08-08T11:39:57.291Z,100535.00
2022-08-08T11:42:45.468Z,100526.00
2022-08-08T11:45:59.917Z,100539.13
2022-08-08T11:48:44.989Z,100522.19
2022-08-08T11:51:40.015Z,100538.16
2022-08-08T11:54:46.401Z,100522.06
2022-08-08T11:57:35.312Z,100521.81
2022-08-08T12:00:28.923Z,100523.81
2022-08-08T12:03:30.590Z,100524.78
2022-08-08T12:06:22.084Z,100508.94
2022-08-08T12:09:17.389Z,100525.97
2022-08-08T12:12:07.121Z,100495.81
2022-08-08T12:15:05.526Z,100492.19
2022-08-08T12:17:57.343Z,100498.66
2022-08-08T12:20:53.024Z,100502.84
2022-08-08T12:23:51.843Z,100505.56
2022-08-08T12:26:54.133Z,100486.13
2022-08-08T12:29:59.967Z,100509.47
2022-08-08T12:32:50.531Z,100499.75
2022-08-08T12:35:41.394Z,100490.00
2022-08-08T12:38:55.352Z,100491.34
2022-08-08T12:41:57.135Z,100490.13
2022-08-08T12:44:48.354Z,100505.19
2022-08-08T12:48:04.527Z,100491.66
2022-08-08T12:50:58.490Z,100476.47
2022-08-08T12:54:01.194Z,100477.69
2022-08-08T12:56:53.217Z,100481.91
2022-08-08T13:00:04.586Z,100485.00
2022-08-08T13:02:58.347Z,100475.13
2022-08-08T13:06:03.868Z,100468.78
2022-08-08T13:08:56.116Z,100465.59
2022-08-08T13:12:24.814Z,100476.50
2022-08-08T13:15:10.620Z,100466.41
2022-08-08T13:18:11.163Z,100469.69
2022-08-08T13:21:01.301Z,100464.22
2022-08-08T13:23:49.931Z,100469.69
2022-08-08T13:26:40.142Z,100462.69
2022-08-08T13:29:40.679Z,100461.78
2022-08-08T13:32:36.811Z,100462.25
2022-08-08T13:35:29.785Z,100464.13
2022-08-08T13:38:28.322Z,100433.53
2022-08-08T13:41:17.359Z,100458.75
2022-08-08T13:44:10.869Z,100447.31
2022-08-08T13:47:02.081Z,100437.06
2022-08-08T13:50:35.329Z,100446.53
2022-08-08T13:53:22.995Z,100438.72
2022-08-08T13:56:12.630Z,100444.31
2022-08-08T13:59:00.395Z,100441.13
2022-08-08T14:01:57.999Z,100438.63
2022-08-08T14:05:21.755Z,100439.13
2022-08-08T14:08:16.765Z,100424.06
2022-08-08T14:11:28.266Z,100450.59
2022-08-08T14:14:20.949Z,100426.06
2022-08-08T14:17:22.468Z,100438.56
2022-08-08T14:20:56.170Z,100435.44
2022-08-08T14:24:06.392Z,100435.28
2022-08-08T14:26:55.359Z,100432.75
2022-08-08T14:29:58.370Z,100411.97
2022-08-08T14:32:53.308Z,100425.38
2022-08-08T14:35:41.685Z,100417.66
2022-08-08T14:38:51.999Z,100434.03
2022-08-08T14:41:53.980Z,100425.50
2022-08-08T14:44:55.857Z,100424.88
2022-08-08T14:47:52.941Z,100421.69
2022-08-08T14:50:40.733Z,100427.94
2022-08-08T14:53:37.340Z,100430.47
2022-08-08T14:56:42.786Z,100423.97
2022-08-08T14:59:44.359Z,100411.22
2022-08-08T15:02:58.658Z,100392.75
2022-08-08T15:05:54.165Z,100417.09
2022-08-08T15:08:54.661Z,100419.22
2022-08-08T15:11:46.587Z,100409.53
2022-08-08T15:14:41.158Z,100408.44
2022-08-08T15:17:29.335Z,100400.06
2022-08-08T15:20:18.679Z,100405.78
2022-08-08T15:23:06.762Z,100403.28
2022-08-08T15:25:55.026Z,100406.13
2022-08-08T15:28:43.654Z,100403.03
2022-08-08T15:32:02.844Z,100400.38
2022-08-08T15:34:45.468Z,100382.19
2022-08-08T15:37:33.266Z,100388.41
2022-08-08T15:40:28.128Z,100404.56
2022-08-08T15:43:35.614Z,100384.75
2022-08-08T15:46:27.254Z,100398.22
2022-08-08T15:49:27.650Z,100415.41
2022-08-08T15:52:22.004Z,100411.72
2022-08-08T15:55:10.597Z,100402.47
2022-08-08T15:57:58.347Z,100389.34
2022-08-08T16:00:50.496Z,100384.41
2022-08-08T16:03:38.594Z,100379.06
2022-08-08T16:06:28.749Z,100395.47
2022-08-08T16:13:14.106Z,100392.00
2022-08-08T16:13:15.435Z,100397.19
2022-08-08T16:15:34.730Z,100383.44
2022-08-08T16:18:43.068Z,100395.50
2022-08-08T16:21:33.297Z,100393.56
2022-08-08T16:24:22.835Z,100387.25
2022-08-08T16:27:17.902Z,100389.19
2022-08-08T16:30:14.630Z,100387.41
2022-08-08T16:33:04.359Z,100382.13
2022-08-08T16:35:53.598Z,100392.03
2022-08-08T16:38:46.462Z,100384.09
2022-08-08T16:41:35.430Z,100389.81
2022-08-08T16:44:27.853Z,100385.06
2022-08-08T16:47:40.189Z,100389.25
2022-08-08T16:50:30.031Z,100376.63
2022-08-08T16:55:03.981Z,100390.53
2022-08-08T16:56:26.734Z,100383.06
2022-08-08T16:59:14.749Z,100376.03
2022-08-08T17:02:09.679Z,100362.66
2022-08-08T17:05:14.155Z,100377.91
2022-08-08T17:08:02.116Z,100371.25
2022-08-08T17:10:58.267Z,100379.78
2022-08-08T17:14:01.393Z,100373.28
2022-08-08T17:16:57.852Z,100390.38
2022-08-08T17:19:46.666Z,100384.81
2022-08-08T17:22:42.054Z,100384.97
2022-08-08T17:25:47.645Z,100390.09
2022-08-08T17:28:38.200Z,100389.59
2022-08-08T17:31:44.643Z,100392.53
2022-08-08T17:34:37.602Z,100401.41
2022-08-08T17:37:42.656Z,100380.59
2022-08-08T17:40:39.861Z,100399.25
2022-08-08T17:43:28.681Z,100401.72
2022-08-08T17:46:39.822Z,100405.63
2022-08-08T17:49:42.585Z,100408.03
2022-08-08T17:52:34.294Z,100406.44
2022-08-08T17:56:06.634Z,100395.00
2022-08-08T17:58:31.722Z,100414.72
2022-08-08T18:01:29.806Z,100418.22
2022-08-08T18:04:28.959Z,100425.38
2022-08-08T18:08:02.689Z,100422.56
2022-08-08T18:10:31.436Z,100426.41
2022-08-08T18:13:19.731Z,100432.44
2022-08-08T18:16:07.636Z,100438.88
2022-08-08T18:18:57.586Z,100441.97
2022-08-08T18:22:01.748Z,100435.97
2022-08-08T18:24:51.045Z,100432.81
2022-08-08T18:27:38.840Z,100446.47
2022-08-08T18:30:31.924Z,100437.28
2022-08-08T18:33:36.377Z,100438.84
2022-08-08T18:36:27.476Z,100460.41
2022-08-08T18:39:28.613Z,100462.28
2022-08-08T18:42:18.421Z,100459.44
2022-08-08T18:45:45.000Z,100460.50
2022-08-08T18:48:18.101Z,100471.47
2022-08-08T18:51:21.724Z,100464.78
2022-08-08T18:54:22.702Z,100473.41
2022-08-08T18:57:15.354Z,100479.81
2022-08-08T19:00:07.537Z,100472.25
2022-08-08T19:03:03.889Z,100489.41
2022-08-08T19:05:52.029Z,100496.59
2022-08-08T19:08:40.564Z,100495.63
2022-08-08T19:11:32.846Z,100495.72
2022-08-08T19:14:23.195Z,100496.16
2022-08-08T19:17:11.142Z,100490.69
2022-08-08T19:20:02.789Z,100511.13
2022-08-08T19:22:51.100Z,100517.59
2022-08-08T19:26:20.146Z,100514.81
2022-08-08T19:28:47.916Z,100534.53
2022-08-08T19:31:37.574Z,100510.72
2022-08-08T19:34:36.123Z,100518.22
2022-08-08T19:37:43.668Z,100531.47
2022-08-08T19:40:34.186Z,100527.66
2022-08-08T19:43:28.245Z,100533.84
2022-08-08T19:46:22.271Z,100537.19
2022-08-08T19:49:10.472Z,100527.75
2022-08-08T19:51:58.243Z,100529.09
2022-08-08T19:54:46.391Z,100545.78
2022-08-08T19:57:36.137Z,100550.69
2022-08-08T20:00:29.946Z,100564.84
2022-08-08T20:04:01.492Z,100553.56
2022-08-08T20:06:27.290Z,100536.91
2022-08-08T20:09:17.288Z,100566.91
2022-08-08T20:12:10.896Z,100558.75
2022-08-08T20:15:14.589Z,100561.09
2022-08-08T20:18:15.511Z,100581.88
2022-08-08T20:21:04.098Z,100569.56
2022-08-08T20:23:52.548Z,100573.41
2022-08-08T20:26:47.070Z,100572.94
2022-08-08T20:29:55.860Z,100574.72
2022-08-08T20:32:46.108Z,100585.53
2022-08-08T20:35:59.505Z,100590.66
2022-08-08T20:38:44.179Z,100587.84
2022-08-08T20:41:31.959Z,100588.38
2022-08-08T20:44:21.686Z,100587.88
2022-08-08T20:47:15.884Z,100582.50
2022-08-08T20:50:12.181Z,100594.09
2022-08-08T20:53:03.881Z,100596.13
2022-08-08T20:55:54.695Z,100591.78
2022-08-08T20:58:48.004Z,100595.66
2022-08-08T21:02:05.569Z,100607.47
2022-08-08T21:04:43.940Z,100597.22
2022-08-08T21:08:33.971Z,100606.75
2022-08-08T21:10:45.522Z,100586.75
2022-08-08T21:13:40.924Z,100603.69
2022-08-08T21:16:29.294Z,100607.00
2022-08-08T21:19:17.089Z,100612.66
2022-08-08T21:22:05.407Z,100616.50
2022-08-08T21:24:54.802Z,100619.63
2022-08-08T21:28:09.174Z,100616.53
2022-08-08T21:30:52.350Z,100624.75
2022-08-08T21:33:40.451Z,100620.13
2022-08-08T21:36:29.407Z,100616.03
2022-08-08T21:39:18.634Z,100616.28
2022-08-08T21:42:09.643Z,100612.69
2022-08-08T21:45:01.272Z,100619.38
2022-08-08T21:48:12.916Z,100619.91
2022-08-08T21:51:11.143Z,100619.66
2022-08-08T21:54:31.286Z,100622.72
2022-08-08T21:57:10.644Z,100627.06
2022-08-08T22:00:02.563Z,100618.56
2022-08-08T22:02:52.486Z,100616.75
2022-08-08T22:05:41.435Z,100628.81
2022-08-08T22:08:37.303Z,100625.47
2022-08-08T22:11:51.256Z,100638.81
2022-08-08T22:14:38.375Z,100620.31
2022-08-08T22:17:30.964Z,100617.22
2022-08-08T22:20:29.407Z,100622.63
2022-08-08T22:23:17.478Z,100633.38
2022-08-08T22:26:27.791Z,100639.03
2022-08-08T22:29:59.056Z,100640.53
2022-08-08T22:32:21.109Z,100632.06
2022-08-08T22:35:08.999Z,100638.19
2022-08-08T22:37:59.571Z,100619.94
2022-08-08T22:40:49.618Z,100645.84
2022-08-08T22:43:39.429Z,100638.91
2022-08-08T22:46:45.911Z,100637.63
2022-08-08T22:49:33.771Z,100628.84
2022-08-08T22:52:33.697Z,100637.06
2022-08-08T22:55:23.507Z,100635.28
2022-08-08T22:58:11.341Z,100630.59
2022-08-08T23:01:00.640Z,100634.25
2022-08-08T23:03:54.677Z,100645.75
2022-08-08T23:06:43.188Z,100625.69
2022-08-08T23:09:39.206Z,100637.75
2022-08-08T23:12:41.409Z,100646.47
2022-08-08T23:16:38.537Z,100637.75
2022-08-08T23:18:37.173Z,100650.50
2022-08-08T23:21:26.967Z,100644.53
2022-08-08T23:24:22.574Z,100644.72
2022-08-08T23:27:17.245Z,100646.69
2022-08-08T23:30:23.800Z,100629.97
2022-08-08T23:33:13.655Z,100647.13
2022-08-08T23:36:09.286Z,100638.41
2022-08-08T23:38:57.867Z,100653.00
2022-08-08T23:41:49.357Z,100639.19
2022-08-08T23:44:38.556Z,100647.38
2022-08-08T23:49:03.467Z,100653.97
2022-08-08T23:50:35.010Z,100645.47
2022-08-08T23:53:56.006Z,100649.81
2022-08-08T23:56:32.261Z,100652.34
2022-08-08T23:59:21.817Z,100656.56
